Time;durP1;ratioP1;P1;durP2;ratioP2;P2;SDS_P1;SDS_P2;PMS_P1;PMS_P2;Temp;Humidity;BMP_temperature;BMP_pressure;BME280_temperature;BME280_humidity;BME280_pressure;Samples;Min_cycle;Max_cycle;Signal;HPM_P1;HPM_P2
2021/08/16 00:01:24;;;;;;;12.27;7.20;;;24.70;64.70;;;;;;5076659;28;20037;-53
2021/08/16 00:03:51;;;;;;;13.18;6.82;;;24.70;64.80;;;;;;5075806;28;20085;-53
2021/08/16 00:06:18;;;;;;;18.20;8.15;;;24.70;65.20;;;;;;5075936;28;20108;-53
2021/08/16 00:08:45;;;;;;;17.05;6.97;;;24.70;65.60;;;;;;5076299;28;20066;-52
2021/08/16 00:11:12;;;;;;;18.27;6.97;;;24.70;65.80;;;;;;5075848;28;20380;-52
2021/08/16 00:13:39;;;;;;;13.07;6.63;;;24.60;65.60;;;;;;5075826;28;20047;-52
2021/08/16 00:16:06;;;;;;;11.35;6.05;;;24.60;65.50;;;;;;5076190;28;20029;-53
2021/08/16 00:18:34;;;;;;;12.27;6.15;;;24.60;65.60;;;;;;5074143;28;20047;-53
2021/08/16 00:21:02;;;;;;;8.27;5.75;;;24.60;65.50;;;;;;5075508;28;20082;-53
2021/08/16 00:23:29;;;;;;;13.60;5.70;;;24.60;65.70;;;;;;5075850;28;20077;-52
2021/08/16 00:25:55;;;;;;;9.80;5.65;;;24.60;65.60;;;;;;5075816;28;20025;-52
2021/08/16 00:28:22;;;;;;;11.43;5.97;;;24.60;65.60;;;;;;5075824;28;20024;-52
2021/08/16 00:30:49;;;;;;;11.30;5.50;;;24.60;65.60;;;;;;5075614;28;20083;-52
2021/08/16 00:33:15;;;;;;;10.63;4.75;;;24.60;65.60;;;;;;5074183;28;20085;-53
2021/08/16 00:35:42;;;;;;;13.88;5.82;;;24.60;65.60;;;;;;5073611;28;20087;-53
2021/08/16 00:38:08;;;;;;;9.25;4.90;;;24.60;65.70;;;;;;5074294;28;20032;-54
2021/08/16 00:40:35;;;;;;;10.80;4.82;;;24.60;65.70;;;;;;5075579;28;20024;-53
2021/08/16 00:43:02;;;;;;;11.75;5.32;;;24.50;65.70;;;;;;5075607;28;20028;-53
2021/08/16 00:45:29;;;;;;;9.05;4.93;;;24.60;65.80;;;;;;5075343;28;20030;-52
2021/08/16 00:47:57;;;;;;;9.05;5.00;;;24.50;65.90;;;;;;5075568;28;20029;-52
2021/08/16 00:50:23;;;;;;;13.52;4.53;;;24.50;65.80;;;;;;5075838;28;20384;-52
2021/08/16 00:52:50;;;;;;;9.10;4.68;;;24.50;65.80;;;;;;5075496;28;20032;-53
2021/08/16 00:55:18;;;;;;;9.90;4.60;;;24.50;65.70;;;;;;5075307;28;20017;-52
2021/08/16 00:57:45;;;;;;;10.50;5.20;;;24.50;65.80;;;;;;5075076;28;20040;-52
2021/08/16 01:00:12;;;;;;;8.23;4.60;;;24.50;65.70;;;;;;5073869;28;20020;-52
2021/08/16 01:02:43;;;;;;;9.02;4.40;;;24.50;65.80;;;;;;5074862;28;20111;-52
2021/08/16 01:05:13;;;;;;;9.27;5.18;;;24.50;65.70;;;;;;5075172;28;20020;-52
2021/08/16 01:07:43;;;;;;;10.32;4.30;;;24.50;65.80;;;;;;5075430;28;20079;-52
2021/08/16 01:10:10;;;;;;;9.10;4.38;;;24.50;65.80;;;;;;5075158;28;20017;-52
2021/08/16 01:12:38;;;;;;;9.35;4.35;;;24.50;65.70;;;;;;5074785;28;20358;-52
2021/08/16 01:15:11;;;;;;;7.95;4.25;;;24.50;65.70;;;;;;5074997;28;20024;-52
2021/08/16 01:17:39;;;;;;;10.93;4.53;;;24.50;65.70;;;;;;5074865;28;20025;-52
2021/08/16 01:20:08;;;;;;;9.57;4.28;;;24.50;65.80;;;;;;5074779;28;20491;-52
2021/08/16 01:22:35;;;;;;;6.82;3.78;;;24.50;65.80;;;;;;5074994;28;20028;-52
2021/08/16 01:25:07;;;;;;;10.02;4.10;;;24.50;65.80;;;;;;5074439;28;20078;-52
2021/08/16 01:27:34;;;;;;;8.55;3.70;;;24.50;65.80;;;;;;5074328;28;20093;-52
2021/08/16 01:30:06;;;;;;;12.88;4.35;;;24.50;65.80;;;;;;5074527;28;20063;-52
2021/08/16 01:32:32;;;;;;;7.40;4.25;;;24.60;65.80;;;;;;5073607;28;20033;-52
2021/08/16 01:34:59;;;;;;;7.80;4.30;;;24.50;65.70;;;;;;5074364;28;20111;-52
2021/08/16 01:37:25;;;;;;;8.10;4.20;;;24.50;65.70;;;;;;5074161;28;20431;-52
2021/08/16 01:39:52;;;;;;;11.93;3.88;;;24.50;65.80;;;;;;5074522;28;20021;-52
2021/08/16 01:42:19;;;;;;;8.98;3.70;;;24.50;65.80;;;;;;5073782;28;20063;-53
2021/08/16 01:44:45;;;;;;;9.98;3.72;;;24.50;65.90;;;;;;5073170;28;20021;-53
2021/08/16 01:47:12;;;;;;;8.60;3.72;;;24.50;65.60;;;;;;5073055;28;20528;-53
2021/08/16 01:49:38;;;;;;;15.52;4.55;;;24.50;65.50;;;;;;5073538;28;20020;-53
2021/08/16 01:52:05;;;;;;;13.55;4.05;;;24.50;65.50;;;;;;5074152;28;20469;-51
2021/08/16 01:54:33;;;;;;;11.10;3.75;;;24.50;65.50;;;;;;5073957;28;20024;-51
2021/08/16 01:57:00;;;;;;;9.98;3.72;;;24.50;65.40;;;;;;5073483;28;20016;-54
2021/08/16 01:59:27;;;;;;;14.23;3.95;;;24.50;65.30;;;;;;5074241;28;20028;-52
2021/08/16 02:01:53;;;;;;;12.45;4.03;;;24.40;65.20;;;;;;5073907;28;20431;-52
2021/08/16 02:04:20;;;;;;;9.52;3.63;;;24.40;65.30;;;;;;5074073;28;20028;-51
2021/08/16 02:06:46;;;;;;;10.38;3.35;;;24.40;65.30;;;;;;5074059;28;20024;-51
2021/08/16 02:09:13;;;;;;;6.88;3.20;;;24.40;65.30;;;;;;5074066;28;20135;-51
2021/08/16 02:11:39;;;;;;;7.68;3.60;;;24.40;65.20;;;;;;5073966;28;20107;-51
2021/08/16 02:14:06;;;;;;;8.52;3.47;;;24.40;65.10;;;;;;5073623;28;20107;-51
2021/08/16 02:16:32;;;;;;;9.57;3.92;;;24.30;65.20;;;;;;5074250;28;20025;-51
2021/08/16 02:18:59;;;;;;;11.57;3.72;;;24.30;65.30;;;;;;5074190;28;20027;-51
2021/08/16 02:21:25;;;;;;;7.68;3.65;;;24.30;65.30;;;;;;5073878;28;20060;-51
2021/08/16 02:23:52;;;;;;;8.65;3.40;;;24.30;65.40;;;;;;5073938;28;20028;-50
2021/08/16 02:26:18;;;;;;;7.45;3.70;;;24.30;65.30;;;;;;5073849;28;20095;-50
2021/08/16 02:28:45;;;;;;;7.78;3.78;;;24.30;65.40;;;;;;5073791;28;20494;-52
2021/08/16 02:31:12;;;;;;;7.43;3.85;;;24.30;65.40;;;;;;5073653;28;20052;-51
2021/08/16 02:33:38;;;;;;;9.18;3.83;;;24.20;65.40;;;;;;5073451;28;20025;-52
2021/08/16 02:36:05;;;;;;;10.52;3.72;;;24.20;65.50;;;;;;5073562;28;20111;-51
2021/08/16 02:38:31;;;;;;;9.57;3.70;;;24.20;65.70;;;;;;5074494;28;20036;-52
2021/08/16 02:40:58;;;;;;;9.68;3.67;;;24.20;66.30;;;;;;5072455;28;20036;-52
2021/08/16 02:43:28;;;;;;;8.30;3.72;;;24.20;65.70;;;;;;5073373;28;20368;-52
2021/08/16 02:45:54;;;;;;;6.63;3.50;;;24.10;65.60;;;;;;5073338;28;20354;-51
2021/08/16 02:48:21;;;;;;;8.55;4.32;;;24.10;65.60;;;;;;5073786;28;20025;-52
2021/08/16 02:50:48;;;;;;;11.65;3.63;;;24.10;65.70;;;;;;5073714;28;20051;-52
2021/08/16 02:53:14;;;;;;;12.10;3.90;;;24.10;65.60;;;;;;5073570;28;20467;-52
2021/08/16 02:55:41;;;;;;;10.13;3.50;;;24.10;65.50;;;;;;5073683;28;20078;-52
2021/08/16 02:58:07;;;;;;;9.50;3.30;;;24.00;65.50;;;;;;5073612;28;20024;-52
2021/08/16 03:00:34;;;;;;;8.90;3.50;;;24.00;65.40;;;;;;5073290;28;20044;-52
2021/08/16 03:03:00;;;;;;;9.10;3.95;;;24.00;65.50;;;;;;5073360;28;20052;-52
2021/08/16 03:05:27;;;;;;;7.65;3.67;;;24.00;65.70;;;;;;5073493;28;20111;-52
2021/08/16 03:07:53;;;;;;;6.05;3.45;;;23.90;65.70;;;;;;5073211;28;20021;-52
2021/08/16 03:10:20;;;;;;;11.05;3.88;;;23.90;65.60;;;;;;5073665;28;20028;-52
2021/08/16 03:12:47;;;;;;;8.32;3.40;;;23.90;65.60;;;;;;5073300;28;20029;-52
2021/08/16 03:15:13;;;;;;;12.20;3.50;;;23.90;65.80;;;;;;5073673;28;20029;-52
2021/08/16 03:17:40;;;;;;;6.72;3.58;;;23.90;65.80;;;;;;5073382;28;20482;-52
2021/08/16 03:20:08;;;;;;;6.65;3.95;;;23.80;66.30;;;;;;5073284;28;20051;-52
2021/08/16 03:22:35;;;;;;;10.75;3.50;;;23.80;65.90;;;;;;5073264;28;20381;-52
2021/08/16 03:25:02;;;;;;;5.95;3.40;;;23.80;65.90;;;;;;5073525;28;20107;-52
2021/08/16 03:27:29;;;;;;;6.85;3.40;;;23.80;65.90;;;;;;5074120;28;20407;-52
2021/08/16 03:29:55;;;;;;;7.13;3.28;;;23.80;65.90;;;;;;5073282;28;20036;-52
2021/08/16 03:32:22;;;;;;;6.97;3.42;;;23.70;65.90;;;;;;5073585;28;20049;-52
2021/08/16 03:34:48;;;;;;;8.43;3.47;;;23.70;65.90;;;;;;5073182;28;20538;-52
2021/08/16 03:37:15;;;;;;;8.20;3.65;;;23.70;65.70;;;;;;5072980;28;20024;-52
2021/08/16 03:39:42;;;;;;;7.47;3.72;;;23.70;65.80;;;;;;5073216;28;20056;-52
2021/08/16 03:42:09;;;;;;;9.10;3.92;;;23.70;65.90;;;;;;5073054;28;20064;-52
2021/08/16 03:44:36;;;;;;;8.63;3.50;;;23.60;65.80;;;;;;5073051;28;20033;-52
2021/08/16 03:47:02;;;;;;;8.82;3.75;;;23.60;65.90;;;;;;5073030;28;20021;-52
2021/08/16 03:49:29;;;;;;;7.72;3.92;;;23.60;65.90;;;;;;5073027;28;20028;-52
2021/08/16 03:51:56;;;;;;;9.02;3.70;;;23.60;65.90;;;;;;5072693;28;20431;-52
2021/08/16 03:54:22;;;;;;;8.73;3.80;;;23.50;65.90;;;;;;5073030;28;20021;-52
2021/08/16 03:56:49;;;;;;;7.20;3.38;;;23.50;66.00;;;;;;5075930;28;20060;-52
2021/08/16 03:59:15;;;;;;;7.70;3.60;;;23.50;66.10;;;;;;5076542;28;20465;-52
2021/08/16 04:01:42;;;;;;;9.20;3.70;;;23.50;66.00;;;;;;5076500;28;20029;-52
2021/08/16 04:04:09;;;;;;;6.43;3.60;;;23.40;65.90;;;;;;5076551;28;20059;-52
2021/08/16 04:06:35;;;;;;;7.63;3.47;;;23.40;65.90;;;;;;5076502;28;20068;-52
2021/08/16 04:09:02;;;;;;;6.82;3.45;;;23.40;66.00;;;;;;5076356;28;20032;-52
2021/08/16 04:11:29;;;;;;;7.72;3.78;;;23.40;66.00;;;;;;5075916;28;20426;-51
2021/08/16 04:13:55;;;;;;;7.25;3.97;;;23.40;66.00;;;;;;5076243;28;20032;-52
2021/08/16 04:16:22;;;;;;;8.43;3.28;;;23.40;66.00;;;;;;5076313;28;20079;-51
2021/08/16 04:18:48;;;;;;;8.15;3.80;;;23.30;66.00;;;;;;5076188;28;20021;-51
2021/08/16 04:21:15;;;;;;;8.48;3.70;;;23.30;66.00;;;;;;5075964;28;20025;-52
2021/08/16 04:23:41;;;;;;;9.00;3.30;;;23.30;66.10;;;;;;5075557;28;20078;-52
2021/08/16 04:26:08;;;;;;;9.73;4.05;;;23.30;66.30;;;;;;5075514;28;20024;-52
2021/08/16 04:28:34;;;;;;;7.13;3.75;;;23.20;66.60;;;;;;5074799;28;20052;-52
2021/08/16 04:31:01;;;;;;;9.00;4.13;;;23.20;66.70;;;;;;5073952;28;20076;-51
2021/08/16 04:33:27;;;;;;;8.15;3.95;;;23.20;66.90;;;;;;5074385;28;20052;-52
2021/08/16 04:35:54;;;;;;;14.35;4.30;;;23.20;67.20;;;;;;5074382;28;20086;-52
2021/08/16 04:38:22;;;;;;;11.73;4.15;;;23.20;67.30;;;;;;5074739;28;20024;-51
2021/08/16 04:40:54;;;;;;;10.80;4.45;;;23.20;67.90;;;;;;5075036;28;20017;-51
2021/08/16 04:43:22;;;;;;;14.05;4.90;;;23.20;68.90;;;;;;5075591;28;20036;-51
2021/08/16 04:45:49;;;;;;;14.45;4.78;;;23.20;69.00;;;;;;5075489;28;20457;-51
2021/08/16 04:48:15;;;;;;;16.42;5.00;;;23.20;68.90;;;;;;5075126;28;20032;-51
2021/08/16 04:50:42;;;;;;;14.00;4.70;;;23.10;69.20;;;;;;5075003;28;20025;-52
2021/08/16 04:53:09;;;;;;;13.43;4.40;;;23.20;69.20;;;;;;5074932;28;20064;-51
2021/08/16 04:55:36;;;;;;;24.38;5.18;;;23.10;69.10;;;;;;5072814;28;20025;-50
2021/08/16 04:58:02;;;;;;;10.50;4.45;;;23.20;69.10;;;;;;5074941;28;20025;-50
2021/08/16 05:00:29;;;;;;;19.23;5.25;;;23.20;69.10;;;;;;5074809;28;20036;-51
2021/08/16 05:02:56;;;;;;;13.35;4.72;;;23.20;69.10;;;;;;5075002;28;20039;-51
2021/08/16 05:05:28;;;;;;;12.10;4.93;;;23.10;69.10;;;;;;5075077;28;20108;-51
2021/08/16 05:07:57;;;;;;;11.57;4.65;;;23.20;69.10;;;;;;5074635;28;20036;-52
2021/08/16 05:10:25;;;;;;;11.20;4.57;;;23.20;69.00;;;;;;5073667;28;20030;-52
2021/08/16 05:12:53;;;;;;;10.27;4.60;;;23.10;68.90;;;;;;5072736;28;20093;-52
2021/08/16 05:15:21;;;;;;;12.00;4.82;;;23.10;68.80;;;;;;5072734;28;20021;-52
2021/08/16 05:17:48;;;;;;;12.27;4.65;;;23.10;68.70;;;;;;5074167;28;20040;-51
2021/08/16 05:20:16;;;;;;;10.20;4.82;;;23.10;68.70;;;;;;5074584;28;20028;-52
2021/08/16 05:22:44;;;;;;;11.52;5.25;;;23.10;68.50;;;;;;5074433;28;20024;-52
2021/08/16 05:25:12;;;;;;;12.95;4.75;;;23.10;68.30;;;;;;5073529;28;20033;-50
2021/08/16 05:27:40;;;;;;;14.65;4.32;;;23.10;68.10;;;;;;5073137;28;20078;-51
2021/08/16 05:30:08;;;;;;;10.43;4.40;;;23.10;68.00;;;;;;5072496;28;20471;-51
2021/08/16 05:32:36;;;;;;;9.50;4.45;;;23.10;68.00;;;;;;5073774;28;20031;-51
2021/08/16 05:35:03;;;;;;;11.65;4.53;;;23.10;68.00;;;;;;5073933;28;20063;-51
2021/08/16 05:37:30;;;;;;;18.13;4.95;;;23.10;67.80;;;;;;5073939;28;20056;-51
2021/08/16 05:39:56;;;;;;;12.00;4.95;;;23.00;67.60;;;;;;5074310;28;20021;-51
2021/08/16 05:42:23;;;;;;;11.63;5.20;;;23.00;67.40;;;;;;5074077;28;20032;-51
2021/08/16 05:44:49;;;;;;;12.95;5.10;;;23.00;67.40;;;;;;5074326;28;20020;-51
2021/08/16 05:47:16;;;;;;;12.38;5.13;;;23.00;67.40;;;;;;5074054;28;20025;-51
2021/08/16 05:49:42;;;;;;;9.38;4.70;;;23.00;67.90;;;;;;5074318;28;20029;-51
2021/08/16 05:52:09;;;;;;;8.18;4.32;;;23.00;67.30;;;;;;5074110;28;20033;-50
2021/08/16 05:54:35;;;;;;;8.63;4.82;;;23.00;67.40;;;;;;5074865;28;20414;-51
2021/08/16 05:57:02;;;;;;;8.80;4.65;;;22.90;67.40;;;;;;5074357;28;20024;-50
2021/08/16 05:59:29;;;;;;;10.18;4.32;;;22.90;67.50;;;;;;5074373;28;20025;-50
2021/08/16 06:01:55;;;;;;;11.38;4.68;;;22.90;67.50;;;;;;5074011;28;20033;-50
2021/08/16 06:04:22;;;;;;;12.07;5.20;;;22.90;67.50;;;;;;5074399;28;20027;-50
2021/08/16 06:06:48;;;;;;;10.00;4.40;;;22.90;67.40;;;;;;5073746;28;20029;-50
2021/08/16 06:09:15;;;;;;;14.45;5.28;;;22.90;67.50;;;;;;5072723;28;20448;-50
2021/08/16 06:11:41;;;;;;;14.40;5.10;;;22.90;67.60;;;;;;5073615;28;20028;-50
2021/08/16 06:14:08;;;;;;;10.05;5.03;;;22.90;67.60;;;;;;5074131;28;20036;-50
2021/08/16 06:16:36;;;;;;;8.60;4.70;;;22.80;67.60;;;;;;5073919;28;20020;-51
2021/08/16 06:19:03;;;;;;;9.82;5.47;;;22.80;67.60;;;;;;5073310;28;20028;-50
2021/08/16 06:21:31;;;;;;;12.05;5.30;;;22.80;67.60;;;;;;5073656;28;20376;-50
2021/08/16 06:23:58;;;;;;;11.25;4.45;;;22.70;67.60;;;;;;5073986;28;20063;-50
2021/08/16 06:26:24;;;;;;;10.07;5.25;;;22.70;67.70;;;;;;5073864;28;20016;-51
2021/08/16 06:28:51;;;;;;;9.20;4.82;;;22.70;67.70;;;;;;5072491;28;20433;-50
2021/08/16 06:31:18;;;;;;;13.18;5.05;;;22.70;67.70;;;;;;5073630;28;20079;-51
2021/08/16 06:33:44;;;;;;;11.27;5.90;;;22.70;67.80;;;;;;5073347;28;20037;-50
2021/08/16 06:36:11;;;;;;;11.40;5.57;;;22.70;67.80;;;;;;5073883;28;20032;-50
2021/08/16 06:38:37;;;;;;;9.15;5.30;;;22.60;67.80;;;;;;5073508;28;20452;-51
2021/08/16 06:41:04;;;;;;;11.35;5.55;;;22.60;67.80;;;;;;5072918;28;20025;-51
2021/08/16 06:43:32;;;;;;;11.02;6.18;;;22.60;67.70;;;;;;5073773;28;20078;-51
2021/08/16 06:45:59;;;;;;;10.85;5.85;;;22.60;67.50;;;;;;5073571;28;20035;-51
2021/08/16 06:48:26;;;;;;;12.73;5.55;;;22.60;67.50;;;;;;5073678;28;20056;-50
2021/08/16 06:50:53;;;;;;;9.70;5.80;;;22.50;67.40;;;;;;5074259;28;20025;-50
2021/08/16 06:53:19;;;;;;;10.73;5.43;;;22.50;67.40;;;;;;5073502;28;20039;-51
2021/08/16 06:55:47;;;;;;;9.05;5.00;;;22.50;67.60;;;;;;5073626;28;20070;-51
2021/08/16 06:58:14;;;;;;;9.60;5.50;;;22.50;67.80;;;;;;5073629;28;20028;-51
2021/08/16 07:00:42;;;;;;;10.57;5.78;;;22.50;67.70;;;;;;5073554;28;20031;-51
2021/08/16 07:03:09;;;;;;;12.60;5.60;;;22.50;67.80;;;;;;5073547;28;20067;-51
2021/08/16 07:05:40;;;;;;;14.85;5.85;;;22.40;67.70;;;;;;5073478;28;20431;-51
2021/08/16 07:08:07;;;;;;;10.18;5.40;;;22.40;67.80;;;;;;5073313;28;20078;-51
2021/08/16 07:10:33;;;;;;;12.00;6.35;;;22.40;67.80;;;;;;5073143;28;20106;-51
2021/08/16 07:13:00;;;;;;;12.25;6.10;;;22.40;67.70;;;;;;5073468;28;20025;-51
2021/08/16 07:15:26;;;;;;;10.18;5.35;;;22.40;67.80;;;;;;5073263;28;20389;-51
2021/08/16 07:17:53;;;;;;;11.90;5.50;;;22.40;67.80;;;;;;5073253;28;20131;-51
2021/08/16 07:20:19;;;;;;;8.35;5.45;;;22.40;67.90;;;;;;5073175;28;20051;-51
2021/08/16 07:22:46;;;;;;;7.88;5.30;;;22.30;67.90;;;;;;5073218;28;20056;-51
2021/08/16 07:25:13;;;;;;;12.13;5.20;;;22.30;67.90;;;;;;5073367;28;20017;-51
2021/08/16 07:27:39;;;;;;;9.00;5.63;;;22.30;68.00;;;;;;5073329;28;20023;-51
2021/08/16 07:30:06;;;;;;;7.07;4.95;;;22.30;68.00;;;;;;5073704;28;20029;-51
2021/08/16 07:32:33;;;;;;;10.10;5.45;;;22.30;68.00;;;;;;5077387;28;20128;-51
2021/08/16 07:35:00;;;;;;;8.98;5.22;;;22.30;68.10;;;;;;5077536;28;20021;-51
2021/08/16 07:37:26;;;;;;;9.38;5.13;;;22.20;68.00;;;;;;5076921;28;20115;-51
2021/08/16 07:39:53;;;;;;;7.63;5.55;;;22.20;68.00;;;;;;5076885;28;20027;-51
2021/08/16 07:42:23;;;;;;;6.85;4.50;;;22.20;68.00;;;;;;5076463;28;20055;-51
2021/08/16 07:44:52;;;;;;;7.15;4.97;;;22.20;68.00;;;;;;5076898;28;20077;-51
2021/08/16 07:47:19;;;;;;;8.82;5.20;;;22.20;68.10;;;;;;5076801;28;20112;-51
2021/08/16 07:49:45;;;;;;;7.13;5.00;;;22.20;68.10;;;;;;5076965;28;20028;-51
2021/08/16 07:52:12;;;;;;;7.70;4.43;;;22.20;68.10;;;;;;5076296;28;20411;-51
2021/08/16 07:54:38;;;;;;;7.15;4.78;;;22.20;68.20;;;;;;5076655;28;20487;-51
2021/08/16 07:57:05;;;;;;;8.50;5.15;;;22.10;68.70;;;;;;5076284;28;20035;-51
2021/08/16 07:59:31;;;;;;;7.38;4.90;;;22.10;68.10;;;;;;5076645;28;20020;-51
2021/08/16 08:01:58;;;;;;;8.52;4.60;;;22.10;68.20;;;;;;5076718;28;20039;-51
2021/08/16 08:04:24;;;;;;;7.68;4.40;;;22.10;68.10;;;;;;5076518;28;20534;-51
2021/08/16 08:06:51;;;;;;;7.32;4.90;;;22.10;68.20;;;;;;5076494;28;20025;-51
2021/08/16 08:09:17;;;;;;;6.50;4.53;;;22.00;68.10;;;;;;5075356;28;20025;-50
2021/08/16 08:11:44;;;;;;;6.90;4.82;;;22.00;68.20;;;;;;5075995;28;20043;-50
2021/08/16 08:14:11;;;;;;;8.00;4.90;;;22.00;68.20;;;;;;5076023;28;20086;-50
2021/08/16 08:16:37;;;;;;;6.15;4.38;;;22.00;68.30;;;;;;5075993;28;20385;-50
2021/08/16 08:19:04;;;;;;;6.75;4.63;;;22.00;68.30;;;;;;5076326;28;20111;-50
2021/08/16 08:21:30;;;;;;;6.60;4.50;;;22.00;68.20;;;;;;5076191;28;20074;-50
2021/08/16 08:23:57;;;;;;;7.75;4.55;;;22.00;68.40;;;;;;5075884;28;20028;-50
2021/08/16 08:26:23;;;;;;;5.63;4.18;;;22.00;68.40;;;;;;5076139;28;20021;-50
2021/08/16 08:28:50;;;;;;;9.20;4.72;;;21.90;68.30;;;;;;5076094;28;20063;-50
2021/08/16 08:31:16;;;;;;;5.72;4.30;;;21.90;68.30;;;;;;5074337;28;20044;-51
2021/08/16 08:33:43;;;;;;;7.60;4.25;;;21.90;68.30;;;;;;5075663;28;20036;-51
2021/08/16 08:36:09;;;;;;;6.40;4.35;;;21.90;68.30;;;;;;5075953;28;20024;-50
2021/08/16 08:38:36;;;;;;;6.82;4.88;;;21.90;68.40;;;;;;5075893;28;20032;-51
2021/08/16 08:41:06;;;;;;;7.60;4.25;;;21.90;68.30;;;;;;5075240;28;20495;-50
2021/08/16 08:43:35;;;;;;;7.30;4.95;;;21.80;68.20;;;;;;5075825;28;20101;-50
2021/08/16 08:46:02;;;;;;;6.60;4.13;;;21.80;68.20;;;;;;5075418;28;20389;-50
2021/08/16 08:48:28;;;;;;;6.10;4.30;;;21.80;68.20;;;;;;5075727;28;20024;-50
2021/08/16 08:50:55;;;;;;;5.20;4.03;;;21.80;68.20;;;;;;5075667;28;20027;-50
2021/08/16 08:53:21;;;;;;;6.03;4.20;;;21.80;68.30;;;;;;5075514;28;20461;-50
2021/08/16 08:55:48;;;;;;;7.18;4.30;;;21.80;68.30;;;;;;5075592;28;20016;-51
2021/08/16 08:58:15;;;;;;;8.50;4.40;;;21.80;68.40;;;;;;5075776;28;20522;-50
2021/08/16 09:00:42;;;;;;;5.70;4.07;;;21.80;68.30;;;;;;5075331;28;20035;-51
2021/08/16 09:03:09;;;;;;;8.40;4.20;;;21.80;68.40;;;;;;5075916;28;20033;-50
2021/08/16 09:05:47;;;;;;;5.93;4.03;;;21.70;68.30;;;;;;5075322;28;20037;-50
2021/08/16 09:08:34;;;;;;;7.45;4.00;;;21.70;68.30;;;;;;5075864;28;20039;-50
2021/08/16 09:11:11;;;;;;;5.40;4.13;;;21.70;68.30;;;;;;5074757;28;20032;-50
2021/08/16 09:13:47;;;;;;;5.72;4.22;;;21.70;68.30;;;;;;5075147;28;20037;-51
2021/08/16 09:16:14;;;;;;;5.32;3.83;;;21.70;68.30;;;;;;5075743;28;20048;-51
2021/08/16 09:18:40;;;;;;;5.72;3.72;;;21.70;68.40;;;;;;5075043;28;20389;-51
2021/08/16 09:21:08;;;;;;;5.50;3.80;;;21.70;68.30;;;;;;5074773;28;20032;-51
2021/08/16 09:23:49;;;;;;;6.10;4.07;;;21.70;68.40;;;;;;5075012;28;20119;-51
2021/08/16 09:26:24;;;;;;;5.60;3.70;;;21.70;68.40;;;;;;5075195;28;20025;-51
2021/08/16 09:28:51;;;;;;;7.00;3.70;;;21.70;68.40;;;;;;5075719;28;20060;-51
2021/08/16 09:31:20;;;;;;;5.43;3.80;;;21.60;68.30;;;;;;5074804;28;20052;-51
2021/08/16 09:34:00;;;;;;;5.55;3.80;;;21.60;68.40;;;;;;5074912;28;20033;-51
2021/08/16 09:36:41;;;;;;;5.53;4.00;;;21.60;68.40;;;;;;5074832;28;20023;-51
2021/08/16 09:39:23;;;;;;;4.68;3.58;;;21.60;68.40;;;;;;5074582;28;20028;-52
2021/08/16 09:42:02;;;;;;;6.57;3.80;;;21.50;68.40;;;;;;5074507;28;20032;-51
2021/08/16 09:44:30;;;;;;;6.68;3.67;;;21.60;68.40;;;;;;5074557;28;20031;-51
2021/08/16 09:47:06;;;;;;;5.85;3.92;;;21.50;68.40;;;;;;5074839;28;20601;-51
2021/08/16 09:49:33;;;;;;;4.72;3.67;;;21.50;68.40;;;;;;5074513;28;20457;-51
2021/08/16 09:52:11;;;;;;;5.00;3.83;;;21.50;68.50;;;;;;5074613;28;20036;-50
2021/08/16 09:54:40;;;;;;;6.20;3.95;;;21.50;68.50;;;;;;5073499;28;20534;-50
2021/08/16 09:57:07;;;;;;;6.45;3.72;;;21.50;68.50;;;;;;5074525;28;20028;-50
2021/08/16 09:59:35;;;;;;;6.13;3.72;;;21.50;68.60;;;;;;5074333;28;20032;-50
2021/08/16 10:02:02;;;;;;;4.75;3.55;;;21.50;68.70;;;;;;5073956;28;20041;-50
2021/08/16 10:04:30;;;;;;;5.55;3.80;;;21.40;68.60;;;;;;5073894;28;20074;-50
2021/08/16 10:07:01;;;;;;;5.57;3.65;;;21.40;68.70;;;;;;5074427;28;20029;-50
2021/08/16 10:09:28;;;;;;;5.43;3.67;;;21.40;68.80;;;;;;5073829;28;20024;-50
2021/08/16 10:11:56;;;;;;;5.25;3.63;;;21.40;68.70;;;;;;5073950;28;20033;-50
2021/08/16 10:14:31;;;;;;;4.22;3.45;;;21.40;68.80;;;;;;5074367;28;20452;-50
2021/08/16 10:17:00;;;;;;;4.38;3.65;;;21.40;68.80;;;;;;5074044;28;20358;-50
2021/08/16 10:19:39;;;;;;;6.40;3.42;;;21.40;68.90;;;;;;5074037;28;20461;-51
2021/08/16 10:22:07;;;;;;;4.15;3.42;;;21.40;69.00;;;;;;5074062;28;20499;-51
2021/08/16 10:24:34;;;;;;;5.13;3.50;;;21.40;69.20;;;;;;5074022;28;20020;-51
2021/08/16 10:27:03;;;;;;;5.03;3.65;;;21.30;69.10;;;;;;5073911;28;20024;-51
2021/08/16 10:29:31;;;;;;;4.82;3.70;;;21.30;69.10;;;;;;5073471;28;20369;-51
2021/08/16 10:32:00;;;;;;;7.85;3.92;;;21.30;69.20;;;;;;5073983;28;20048;-51
2021/08/16 10:34:37;;;;;;;4.07;3.30;;;21.40;69.20;;;;;;5073794;28;20028;-51
2021/08/16 10:37:11;;;;;;;4.65;3.50;;;21.30;69.10;;;;;;5073546;28;20418;-51
2021/08/16 10:39:50;;;;;;;5.70;3.22;;;21.30;69.10;;;;;;5074351;28;20032;-51
2021/08/16 10:42:19;;;;;;;4.82;3.42;;;21.30;69.10;;;;;;5073629;28;20108;-51
2021/08/16 10:44:49;;;;;;;5.57;3.53;;;21.30;69.20;;;;;;5073880;28;20086;-51
2021/08/16 10:47:33;;;;;;;4.43;3.47;;;21.30;69.30;;;;;;5073417;28;20374;-50
2021/08/16 10:50:12;;;;;;;4.18;3.13;;;21.30;69.30;;;;;;5073687;28;20035;-51
2021/08/16 10:52:41;;;;;;;6.00;3.50;;;21.30;69.30;;;;;;5073594;28;20040;-51
2021/08/16 10:55:25;;;;;;;5.85;3.65;;;21.30;69.40;;;;;;5073577;28;20108;-51
2021/08/16 10:57:53;;;;;;;4.05;3.20;;;21.30;69.50;;;;;;5073630;28;20389;-51
2021/08/16 11:00:20;;;;;;;5.57;3.60;;;21.20;69.30;;;;;;5073506;28;20035;-51
2021/08/16 11:02:54;;;;;;;4.28;3.08;;;21.20;69.50;;;;;;5073896;28;20081;-51
2021/08/16 11:05:29;;;;;;;4.28;3.33;;;21.20;69.30;;;;;;5076392;28;20033;-51
2021/08/16 11:07:58;;;;;;;5.05;3.40;;;21.20;69.40;;;;;;5077334;28;20032;-51
2021/08/16 11:10:24;;;;;;;4.32;3.45;;;21.20;69.40;;;;;;5077637;28;20024;-51
2021/08/16 11:12:51;;;;;;;4.90;3.20;;;21.20;69.50;;;;;;5077326;28;20040;-51
2021/08/16 11:15:18;;;;;;;4.55;3.28;;;21.10;69.50;;;;;;5077503;28;20032;-51
2021/08/16 11:17:45;;;;;;;4.10;3.28;;;21.20;69.50;;;;;;5077369;28;20024;-51
2021/08/16 11:20:16;;;;;;;5.00;3.30;;;21.10;69.90;;;;;;5077370;28;20103;-51
2021/08/16 11:22:54;;;;;;;5.07;3.73;;;21.10;69.30;;;;;;5077354;28;20032;-51
2021/08/16 11:25:21;;;;;;;4.13;3.25;;;21.10;69.20;;;;;;5077527;28;20038;-50
2021/08/16 11:27:48;;;;;;;6.03;3.20;;;21.10;69.30;;;;;;5077185;28;20375;-50
2021/08/16 11:30:14;;;;;;;4.63;3.28;;;21.10;69.30;;;;;;5077205;28;20031;-50
2021/08/16 11:32:42;;;;;;;4.50;3.05;;;21.10;69.30;;;;;;5077079;28;20115;-50
2021/08/16 11:35:10;;;;;;;4.90;2.90;;;21.10;69.30;;;;;;5076738;28;20112;-50
2021/08/16 11:37:43;;;;;;;4.75;3.15;;;21.00;69.30;;;;;;5076770;28;20029;-51
2021/08/16 11:40:10;;;;;;;4.70;3.17;;;21.10;69.30;;;;;;5077034;28;20024;-50
2021/08/16 11:42:39;;;;;;;3.65;3.05;;;21.10;69.30;;;;;;5077000;28;20028;-50
2021/08/16 11:45:08;;;;;;;4.28;3.13;;;21.10;69.30;;;;;;5076839;28;20354;-50
2021/08/16 11:47:41;;;;;;;4.30;3.03;;;21.00;69.30;;;;;;5076805;28;20032;-50
2021/08/16 11:50:13;;;;;;;5.25;2.97;;;21.10;69.40;;;;;;5077376;28;20104;-50
2021/08/16 11:52:40;;;;;;;;;;;21.00;69.30;;;;;;5077083;28;20032;-50
2021/08/16 11:55:09;;;;;;;4.53;2.95;;;21.00;69.30;;;;;;5076639;28;19911;-50
2021/08/16 11:57:39;;;;;;;4.78;3.20;;;21.00;69.30;;;;;;5076682;28;20066;-50
2021/08/16 12:00:08;;;;;;;4.40;2.95;;;21.00;69.30;;;;;;5077402;28;20464;-50
2021/08/16 12:02:40;;;;;;;3.60;2.65;;;21.00;69.30;;;;;;5076536;28;20036;-50
2021/08/16 12:05:08;;;;;;;3.95;3.20;;;20.90;69.20;;;;;;5076892;28;20093;-50
2021/08/16 12:07:34;;;;;;;6.85;3.10;;;21.00;69.30;;;;;;5076366;28;20024;-50
2021/08/16 12:10:01;;;;;;;3.72;2.80;;;21.00;69.30;;;;;;5076408;28;20457;-50
2021/08/16 12:12:29;;;;;;;4.07;2.80;;;20.90;69.20;;;;;;5076011;28;20044;-50
2021/08/16 12:15:14;;;;;;;3.97;3.13;;;20.90;69.30;;;;;;5076082;28;20458;-50
2021/08/16 12:17:42;;;;;;;3.55;2.80;;;20.90;69.30;;;;;;5075607;28;20025;-50
2021/08/16 12:20:15;;;;;;;3.83;2.60;;;20.90;69.30;;;;;;5076485;28;20033;-50
2021/08/16 12:22:58;;;;;;;4.88;3.08;;;20.90;69.30;;;;;;5076200;28;20028;-50
2021/08/16 12:25:25;;;;;;;3.88;2.95;;;20.90;69.30;;;;;;5076550;28;20100;-50
2021/08/16 12:28:02;;;;;;;3.25;2.45;;;20.90;69.30;;;;;;5076077;28;20085;-50
2021/08/16 12:30:34;;;;;;;3.40;2.63;;;20.90;69.30;;;;;;5075868;28;20031;-50
2021/08/16 12:33:14;;;;;;;;;;;20.90;69.30;;;;;;5076689;28;20123;-50
2021/08/16 12:35:53;;;;;;;4.47;2.50;;;20.80;69.30;;;;;;5076042;28;19927;-50
2021/08/16 12:38:29;;;;;;;3.58;2.70;;;20.80;69.30;;;;;;5075942;28;20021;-50
2021/08/16 12:41:08;;;;;;;3.38;2.60;;;20.90;69.40;;;;;;5075889;28;20040;-50
2021/08/16 12:43:43;;;;;;;3.58;2.75;;;20.80;69.40;;;;;;5075864;28;20063;-50
2021/08/16 12:46:10;;;;;;;3.65;2.53;;;20.80;69.30;;;;;;5075844;28;20028;-51
2021/08/16 12:48:41;;;;;;;3.88;2.80;;;20.80;69.30;;;;;;5075735;28;20029;-50
2021/08/16 12:51:08;;;;;;;3.28;2.55;;;20.80;69.30;;;;;;5075791;28;20024;-51